createdAt,value
2024-04-13T00:01:36.659Z,100.00
2024-04-13T00:04:04.410Z,100.00
2024-04-13T00:06:31.194Z,100.00
2024-04-13T00:08:57.816Z,100.00
2024-04-13T00:11:24.362Z,100.00
2024-04-13T00:13:51.155Z,100.00
2024-04-13T00:16:18.592Z,100.00
2024-04-13T00:18:46.804Z,100.00
2024-04-13T00:21:16.534Z,100.00
2024-04-13T00:23:46.897Z,100.00
2024-04-13T00:26:13.423Z,100.00
2024-04-13T00:28:40.028Z,100.00
2024-04-13T00:31:09.518Z,100.00
2024-04-13T00:33:40.105Z,100.00
2024-04-13T00:36:07.542Z,100.00
2024-04-13T00:38:34.179Z,100.00
2024-04-13T00:41:00.763Z,100.00
2024-04-13T00:43:27.354Z,100.00
2024-04-13T00:45:56.550Z,100.00
2024-04-13T00:48:25.950Z,100.00
2024-04-13T00:50:59.931Z,100.00
2024-04-13T00:53:30.093Z,100.00
2024-04-13T00:56:01.616Z,100.00
2024-04-13T00:58:29.214Z,100.00
2024-04-13T01:00:58.220Z,100.00
2024-04-13T01:03:29.192Z,100.00
2024-04-13T01:05:59.513Z,100.00
2024-04-13T01:08:29.564Z,100.00
2024-04-13T01:10:57.220Z,100.00
2024-04-13T01:13:23.902Z,100.00
2024-04-13T01:15:50.471Z,100.00
2024-04-13T01:18:17.467Z,100.00
2024-04-13T01:20:44.999Z,100.00
2024-04-13T01:23:13.249Z,100.00
2024-04-13T01:25:41.974Z,100.00
2024-04-13T01:28:09.263Z,100.00
2024-04-13T01:30:36.891Z,100.00
2024-04-13T01:33:06.584Z,100.00
2024-04-13T01:35:33.280Z,100.00
2024-04-13T01:37:59.848Z,100.00
2024-04-13T01:40:26.420Z,100.00
2024-04-13T01:42:53.031Z,100.00
2024-04-13T01:45:19.809Z,100.00
2024-04-13T01:47:46.546Z,100.00
2024-04-13T01:50:14.049Z,100.00
2024-04-13T01:52:41.098Z,100.00
2024-04-13T01:55:07.915Z,100.00
2024-04-13T01:57:34.782Z,100.00
2024-04-13T02:00:01.536Z,100.00
2024-04-13T02:02:28.273Z,100.00
2024-04-13T02:04:54.818Z,100.00
2024-04-13T02:07:21.389Z,100.00
2024-04-13T02:09:47.937Z,100.00
2024-04-13T02:12:15.512Z,100.00
2024-04-13T02:14:42.207Z,100.00
2024-04-13T02:17:08.777Z,100.00
2024-04-13T02:19:35.343Z,100.00
2024-04-13T02:22:01.911Z,100.00
2024-04-13T02:24:28.538Z,100.00
2024-04-13T02:26:55.097Z,100.00
2024-04-13T02:29:21.622Z,100.00
2024-04-13T02:31:48.172Z,100.00
2024-04-13T02:34:14.705Z,100.00
2024-04-13T02:36:41.313Z,100.00
2024-04-13T02:39:09.830Z,100.00
2024-04-13T02:41:37.072Z,100.00
2024-04-13T02:44:03.951Z,100.00
2024-04-13T02:46:30.730Z,100.00
2024-04-13T02:48:57.439Z,100.00
2024-04-13T02:51:24.237Z,100.00
2024-04-13T02:53:50.928Z,100.00
2024-04-13T02:56:17.745Z,100.00
2024-04-13T02:58:44.327Z,100.00
2024-04-13T03:01:10.980Z,100.00
2024-04-13T03:03:37.766Z,100.00
2024-04-13T03:06:09.162Z,100.00
2024-04-13T03:08:36.468Z,100.00
2024-04-13T03:11:03.583Z,100.00
2024-04-13T03:13:30.808Z,100.00
2024-04-13T03:16:02.109Z,100.00
2024-04-13T03:18:29.122Z,100.00
2024-04-13T03:20:55.821Z,100.00
2024-04-13T03:23:22.629Z,100.00
2024-04-13T03:25:49.440Z,100.00
2024-04-13T03:28:16.090Z,100.00
2024-04-13T03:30:42.740Z,100.00
2024-04-13T03:33:09.362Z,100.00
2024-04-13T03:35:39.644Z,100.00
2024-04-13T03:38:07.800Z,100.00
2024-04-13T03:40:37.701Z,100.00
2024-04-13T03:43:04.773Z,100.00
2024-04-13T03:45:31.381Z,100.00
2024-04-13T03:47:58.343Z,100.00
2024-04-13T03:50:25.187Z,100.00
2024-04-13T03:52:51.758Z,100.00
2024-04-13T03:55:18.330Z,100.00
2024-04-13T03:57:44.970Z,100.00
2024-04-13T04:00:11.994Z,100.00
2024-04-13T04:02:38.528Z,100.00
2024-04-13T04:05:05.439Z,100.00
2024-04-13T04:07:35.716Z,100.00
2024-04-13T04:10:02.358Z,100.00
2024-04-13T04:12:28.999Z,100.00
2024-04-13T04:14:55.877Z,100.00
2024-04-13T04:17:22.526Z,100.00
2024-04-13T04:19:49.151Z,100.00
2024-04-13T04:22:15.727Z,100.00
2024-04-13T04:24:42.371Z,100.00
2024-04-13T04:27:08.979Z,100.00
2024-04-13T04:29:35.673Z,100.00
2024-04-13T04:32:02.794Z,100.00
2024-04-13T04:34:31.202Z,100.00
2024-04-13T04:36:57.811Z,100.00
2024-04-13T04:39:24.484Z,100.00
2024-04-13T04:41:52.354Z,100.00
2024-04-13T04:44:18.938Z,100.00
2024-04-13T04:46:47.018Z,100.00
2024-04-13T04:49:13.911Z,100.00
2024-04-13T04:51:42.133Z,100.00
2024-04-13T04:54:11.464Z,100.00
2024-04-13T04:56:38.078Z,100.00
2024-04-13T04:59:04.658Z,100.00
2024-04-13T05:01:31.212Z,100.00
2024-04-13T05:03:58.025Z,100.00
2024-04-13T05:06:25.050Z,100.00
2024-04-13T05:08:51.688Z,100.00
2024-04-13T05:11:18.348Z,100.00
2024-04-13T05:13:44.919Z,100.00
2024-04-13T05:16:11.617Z,100.00
2024-04-13T05:18:39.043Z,100.00
2024-04-13T05:21:06.078Z,100.00
2024-04-13T05:23:32.674Z,100.00
2024-04-13T05:25:59.539Z,100.00
2024-04-13T05:28:27.860Z,100.00
2024-04-13T05:30:57.997Z,100.00
2024-04-13T05:33:25.196Z,100.00
2024-04-13T05:35:52.346Z,100.00
2024-04-13T05:38:19.190Z,100.00
2024-04-13T05:40:45.847Z,100.00
2024-04-13T05:43:13.385Z,100.00
2024-04-13T05:45:40.561Z,100.00
2024-04-13T05:48:07.789Z,100.00
2024-04-13T05:50:35.015Z,100.00
2024-04-13T05:53:01.731Z,100.00
2024-04-13T05:55:28.443Z,100.00
2024-04-13T05:57:55.102Z,100.00
2024-04-13T06:00:23.069Z,100.00
2024-04-13T06:02:50.188Z,100.00
2024-04-13T06:05:16.875Z,100.00
2024-04-13T06:07:44.546Z,100.00
2024-04-13T06:10:11.106Z,100.00
2024-04-13T06:12:37.728Z,100.00
2024-04-13T06:15:04.746Z,100.00
2024-04-13T06:17:31.268Z,100.00
2024-04-13T06:19:57.830Z,100.00
2024-04-13T06:22:24.812Z,100.00
2024-04-13T06:24:51.850Z,100.00
2024-04-13T06:27:19.329Z,99.17
2024-04-13T06:29:52.234Z,98.86
2024-04-13T06:32:19.568Z,97.22
2024-04-13T06:34:46.272Z,94.99
2024-04-13T06:37:13.349Z,93.05
2024-04-13T06:39:40.476Z,92.36
2024-04-13T06:42:07.262Z,93.21
2024-04-13T06:44:34.023Z,91.54
2024-04-13T06:47:00.615Z,90.43
2024-04-13T06:49:27.372Z,90.79
2024-04-13T06:51:54.511Z,90.00
2024-04-13T06:54:21.523Z,90.59
2024-04-13T06:56:48.080Z,90.58
2024-04-13T06:59:14.644Z,89.69
2024-04-13T07:01:41.227Z,91.20
2024-04-13T07:04:07.855Z,91.37
2024-04-13T07:06:38.091Z,90.49
2024-04-13T07:09:05.311Z,89.45
2024-04-13T07:11:32.259Z,85.75
2024-04-13T07:13:58.937Z,81.72
2024-04-13T07:16:25.608Z,78.43
2024-04-13T07:18:52.215Z,76.60
2024-04-13T07:21:18.963Z,73.28
2024-04-13T07:23:45.682Z,73.41
2024-04-13T07:26:12.273Z,75.07
2024-04-13T07:28:38.824Z,74.87
2024-04-13T07:31:06.114Z,76.26
2024-04-13T07:33:32.828Z,74.20
2024-04-13T07:35:59.546Z,75.82
2024-04-13T07:38:27.121Z,77.65
2024-04-13T07:40:54.433Z,78.92
2024-04-13T07:43:21.427Z,81.06
2024-04-13T07:45:51.128Z,84.06
2024-04-13T07:48:18.612Z,84.28
2024-04-13T07:50:45.272Z,84.60
2024-04-13T07:53:12.698Z,85.92
2024-04-13T07:55:39.677Z,86.19
2024-04-13T07:58:06.367Z,86.22
2024-04-13T08:00:33.016Z,86.37
2024-04-13T08:02:59.694Z,86.38
2024-04-13T08:05:26.284Z,87.76
2024-04-13T08:07:52.966Z,86.83
2024-04-13T08:10:20.965Z,86.88
2024-04-13T08:12:47.700Z,87.57
2024-04-13T08:15:14.367Z,86.09
2024-04-13T08:17:41.014Z,87.22
2024-04-13T08:20:10.599Z,88.26
2024-04-13T08:22:38.153Z,88.58
2024-04-13T08:25:05.947Z,88.34
2024-04-13T08:27:34.057Z,88.78
2024-04-13T08:30:00.714Z,88.43
2024-04-13T08:32:27.417Z,86.85
2024-04-13T08:34:54.003Z,87.56
2024-04-13T08:37:21.948Z,85.91
2024-04-13T08:39:48.615Z,85.93
2024-04-13T08:42:19.854Z,83.83
2024-04-13T08:44:51.381Z,81.56
2024-04-13T08:47:20.085Z,81.91
2024-04-13T08:49:49.599Z,83.53
2024-04-13T08:52:17.123Z,83.79
2024-04-13T08:54:46.940Z,83.07
2024-04-13T08:57:21.058Z,82.42
2024-04-13T08:59:50.457Z,82.90
2024-04-13T09:02:17.818Z,84.25
2024-04-13T09:04:44.592Z,82.90
2024-04-13T09:07:11.940Z,83.97
2024-04-13T09:09:40.639Z,81.60
2024-04-13T09:12:07.986Z,82.03
2024-04-13T09:14:34.700Z,80.96
2024-04-13T09:17:01.958Z,83.25
2024-04-13T09:19:28.835Z,80.89
2024-04-13T09:21:56.759Z,81.97
2024-04-13T09:24:23.553Z,82.09
2024-04-13T09:26:50.438Z,79.90
2024-04-13T09:29:29.185Z,80.64
2024-04-13T09:31:56.004Z,80.57
2024-04-13T09:34:24.762Z,81.36
2024-04-13T09:36:51.631Z,80.48
2024-04-13T09:39:23.186Z,80.29
2024-04-13T09:41:50.295Z,80.74
2024-04-13T09:44:26.653Z,78.06
2024-04-13T09:46:53.611Z,79.70
2024-04-13T09:49:20.404Z,77.44
2024-04-13T09:51:50.374Z,75.98
2024-04-13T09:54:17.233Z,75.58
2024-04-13T09:56:47.860Z,75.76
2024-04-13T09:59:15.050Z,76.50
2024-04-13T10:01:41.886Z,77.51
2024-04-13T10:04:08.656Z,75.25
2024-04-13T10:06:38.219Z,76.86
2024-04-13T10:09:07.268Z,76.94
2024-04-13T10:11:39.735Z,75.46
2024-04-13T10:14:07.554Z,73.85
2024-04-13T10:16:34.399Z,76.19
2024-04-13T10:19:01.657Z,72.40
2024-04-13T10:21:28.272Z,75.73
2024-04-13T10:23:56.259Z,74.46
2024-04-13T10:26:27.237Z,74.46
2024-04-13T10:29:01.401Z,72.86
2024-04-13T10:31:30.000Z,72.12
2024-04-13T10:33:57.859Z,71.43
2024-04-13T10:36:33.417Z,73.93
2024-04-13T10:39:03.329Z,75.97
2024-04-13T10:41:39.896Z,74.97
2024-04-13T10:44:08.979Z,71.59
2024-04-13T10:46:35.576Z,75.10
2024-04-13T10:49:03.224Z,75.49
2024-04-13T10:51:30.082Z,73.52
2024-04-13T10:53:56.842Z,71.73
2024-04-13T10:56:23.466Z,72.31
2024-04-13T10:58:51.100Z,75.28
2024-04-13T11:01:19.983Z,74.82
2024-04-13T11:03:47.097Z,71.44
2024-04-13T11:06:13.967Z,72.32
2024-04-13T11:08:40.985Z,73.12
2024-04-13T11:11:11.791Z,74.56
2024-04-13T11:13:38.771Z,74.36
2024-04-13T11:16:07.182Z,72.07
2024-04-13T11:18:34.209Z,70.39
2024-04-13T11:21:06.969Z,70.98
2024-04-13T11:23:35.574Z,71.24
2024-04-13T11:26:03.562Z,70.14
2024-04-13T11:28:30.851Z,68.36
2024-04-13T11:30:57.892Z,68.37
2024-04-13T11:33:25.348Z,66.76
2024-04-13T11:35:59.297Z,67.67
2024-04-13T11:38:36.225Z,67.10
2024-04-13T11:41:02.881Z,67.83
2024-04-13T11:43:29.507Z,67.94
2024-04-13T11:45:57.106Z,64.63
2024-04-13T11:48:24.102Z,66.67
2024-04-13T11:50:50.790Z,67.83
2024-04-13T11:53:17.540Z,62.77
2024-04-13T11:55:44.080Z,62.86
2024-04-13T11:58:21.104Z,62.66
2024-04-13T12:00:47.916Z,63.72
2024-04-13T12:03:14.673Z,64.64
2024-04-13T12:05:41.268Z,64.15
2024-04-13T12:08:07.936Z,64.39
2024-04-13T12:10:34.485Z,62.20
2024-04-13T12:13:01.143Z,61.62
2024-04-13T12:15:27.720Z,62.64
2024-04-13T12:17:54.327Z,61.08
2024-04-13T12:20:21.590Z,62.99
2024-04-13T12:22:48.155Z,61.25
2024-04-13T12:25:14.879Z,62.48
2024-04-13T12:27:41.469Z,61.06
2024-04-13T12:30:08.949Z,59.94
2024-04-13T12:32:35.654Z,60.11
2024-04-13T12:35:08.678Z,59.82
2024-04-13T12:37:36.365Z,57.93
2024-04-13T12:40:03.396Z,58.59
2024-04-13T12:42:30.594Z,56.81
2024-04-13T12:44:58.113Z,56.87
2024-04-13T12:47:24.749Z,57.36
2024-04-13T12:49:51.339Z,54.57
2024-04-13T12:52:17.988Z,56.04
2024-04-13T12:54:44.636Z,55.22
2024-04-13T12:57:11.627Z,55.83
2024-04-13T12:59:38.157Z,55.14
2024-04-13T13:02:04.835Z,55.17
2024-04-13T13:04:31.477Z,54.03
2024-04-13T13:06:58.079Z,55.13
2024-04-13T13:09:24.877Z,54.29
2024-04-13T13:11:51.456Z,55.20
2024-04-13T13:14:18.015Z,55.69
2024-04-13T13:16:44.618Z,53.80
2024-04-13T13:19:11.176Z,54.03
2024-04-13T13:21:37.814Z,56.53
2024-04-13T13:24:05.547Z,53.10
2024-04-13T13:26:32.102Z,55.58
2024-04-13T13:29:03.601Z,54.33
2024-04-13T13:31:30.611Z,52.21
2024-04-13T13:33:57.688Z,52.30
2024-04-13T13:36:24.277Z,51.24
2024-04-13T13:38:51.207Z,52.28
2024-04-13T13:41:18.172Z,53.32
2024-04-13T13:43:44.721Z,54.13
2024-04-13T13:46:11.270Z,53.59
2024-04-13T13:48:37.955Z,54.30
2024-04-13T13:51:04.916Z,54.22
2024-04-13T13:53:31.499Z,54.15
2024-04-13T13:55:58.011Z,54.56
2024-04-13T13:58:24.572Z,56.06
2024-04-13T14:00:51.142Z,53.36
2024-04-13T14:03:17.767Z,54.67
2024-04-13T14:05:44.357Z,55.97
2024-04-13T14:08:10.895Z,56.25
2024-04-13T14:10:40.211Z,55.89
2024-04-13T14:13:07.690Z,56.43
2024-04-13T14:15:38.328Z,56.87
2024-04-13T14:18:06.122Z,58.38
2024-04-13T14:20:32.702Z,57.87
2024-04-13T14:22:59.225Z,60.58
2024-04-13T14:25:25.736Z,57.71
2024-04-13T14:27:52.420Z,58.42
2024-04-13T14:30:19.097Z,58.48
2024-04-13T14:32:45.723Z,57.96
2024-04-13T14:35:12.330Z,57.92
2024-04-13T14:37:38.860Z,56.30
2024-04-13T14:40:07.548Z,59.11
2024-04-13T14:42:34.504Z,58.05
2024-04-13T14:45:01.257Z,56.52
2024-04-13T14:47:27.935Z,56.33
2024-04-13T14:49:54.475Z,56.81
2024-04-13T14:52:20.989Z,56.57
2024-04-13T14:54:47.606Z,56.97
2024-04-13T14:57:14.181Z,56.89
2024-04-13T14:59:40.821Z,56.20
2024-04-13T15:02:07.405Z,56.71
2024-04-13T15:04:34.730Z,54.77
2024-04-13T15:07:01.446Z,56.02
2024-04-13T15:09:27.982Z,55.52
2024-04-13T15:11:54.839Z,56.71
2024-04-13T15:14:21.397Z,56.34
2024-04-13T15:16:48.003Z,54.94
2024-04-13T15:19:14.794Z,55.25
2024-04-13T15:21:41.489Z,54.85
2024-04-13T15:24:08.448Z,55.64
2024-04-13T15:26:35.092Z,55.91
2024-04-13T15:29:01.936Z,55.04
2024-04-13T15:31:30.208Z,55.25
2024-04-13T15:33:56.877Z,55.54
2024-04-13T15:36:23.483Z,55.63
2024-04-13T15:38:50.071Z,55.55
2024-04-13T15:41:16.680Z,55.66
2024-04-13T15:43:43.260Z,56.57
2024-04-13T15:46:09.856Z,58.41
2024-04-13T15:48:36.509Z,56.92
2024-04-13T15:51:04.117Z,58.26
2024-04-13T15:53:31.671Z,57.89
2024-04-13T15:55:59.736Z,58.30
2024-04-13T15:58:26.494Z,57.99
2024-04-13T16:00:53.153Z,59.12
2024-04-13T16:03:21.809Z,58.96
2024-04-13T16:05:54.339Z,58.89
2024-04-13T16:08:21.693Z,59.25
2024-04-13T16:10:48.373Z,60.49
2024-04-13T16:13:14.992Z,60.26
2024-04-13T16:15:41.543Z,59.37
2024-04-13T16:18:08.139Z,60.49
2024-04-13T16:20:34.652Z,60.39
2024-04-13T16:23:01.171Z,59.41
2024-04-13T16:25:27.746Z,61.17
2024-04-13T16:27:56.195Z,60.04
2024-04-13T16:30:22.762Z,59.81
2024-04-13T16:32:49.329Z,61.59
2024-04-13T16:35:16.084Z,60.78
2024-04-13T16:37:42.642Z,61.74
2024-04-13T16:40:09.468Z,60.34
2024-04-13T16:42:36.027Z,60.02
2024-04-13T16:45:02.602Z,60.79
2024-04-13T16:47:29.399Z,61.30
2024-04-13T16:49:56.024Z,61.21
2024-04-13T16:52:22.593Z,61.32
2024-04-13T16:54:49.261Z,63.35
2024-04-13T16:57:15.906Z,62.65
2024-04-13T16:59:42.451Z,63.34
2024-04-13T17:02:09.026Z,63.69
2024-04-13T17:04:35.781Z,64.06
2024-04-13T17:07:02.334Z,63.86
2024-04-13T17:09:28.948Z,63.73
2024-04-13T17:11:55.515Z,64.66
2024-04-13T17:14:22.170Z,64.84
2024-04-13T17:16:48.672Z,65.60
2024-04-13T17:19:15.354Z,64.22
2024-04-13T17:21:41.992Z,66.32
2024-04-13T17:24:08.671Z,67.39
2024-04-13T17:26:35.215Z,68.08
2024-04-13T17:29:01.725Z,69.24
2024-04-13T17:31:28.286Z,70.00
2024-04-13T17:33:54.957Z,69.33
2024-04-13T17:36:22.497Z,69.45
2024-04-13T17:38:49.180Z,70.80
2024-04-13T17:41:16.256Z,70.74
2024-04-13T17:43:42.817Z,68.76
2024-04-13T17:46:09.422Z,69.44
2024-04-13T17:48:36.203Z,67.64
2024-04-13T17:51:02.798Z,68.18
2024-04-13T17:53:29.359Z,67.28
2024-04-13T17:55:55.935Z,67.64
2024-04-13T17:58:23.015Z,68.16
2024-04-13T18:00:49.640Z,67.75
2024-04-13T18:03:16.243Z,67.12
2024-04-13T18:05:42.918Z,67.68
2024-04-13T18:08:11.145Z,66.34
2024-04-13T18:10:40.310Z,66.85
2024-04-13T18:13:06.910Z,67.18
2024-04-13T18:15:33.518Z,67.60
2024-04-13T18:18:00.263Z,66.94
2024-04-13T18:20:26.842Z,67.16
2024-04-13T18:22:53.418Z,67.86
2024-04-13T18:25:20.022Z,67.74
2024-04-13T18:27:47.459Z,69.13
2024-04-13T18:30:15.110Z,68.06
2024-04-13T18:32:41.904Z,68.11
2024-04-13T18:35:08.645Z,68.90
2024-04-13T18:37:35.347Z,69.02
2024-04-13T18:40:01.916Z,69.83
2024-04-13T18:42:28.618Z,71.07
2024-04-13T18:44:55.209Z,71.35
2024-04-13T18:47:22.073Z,70.37
2024-04-13T18:49:54.325Z,71.90
2024-04-13T18:52:21.904Z,72.43
2024-04-13T18:54:49.617Z,72.38
2024-04-13T18:57:16.362Z,72.72
2024-04-13T18:59:43.893Z,72.85
2024-04-13T19:02:10.855Z,73.91
2024-04-13T19:04:37.592Z,74.52
2024-04-13T19:07:04.648Z,74.81
2024-04-13T19:09:31.289Z,75.97
2024-04-13T19:11:57.829Z,76.36
2024-04-13T19:14:24.420Z,75.65
2024-04-13T19:16:52.374Z,76.69
2024-04-13T19:19:19.683Z,75.69
2024-04-13T19:21:46.855Z,76.29
2024-04-13T19:24:14.153Z,76.79
2024-04-13T19:26:41.817Z,76.15
2024-04-13T19:29:09.026Z,76.54
2024-04-13T19:31:35.813Z,77.22
2024-04-13T19:34:02.601Z,77.72
2024-04-13T19:36:29.222Z,78.33
2024-04-13T19:38:55.780Z,77.82
2024-04-13T19:41:22.289Z,78.30
2024-04-13T19:43:48.819Z,79.00
2024-04-13T19:46:15.384Z,79.19
2024-04-13T19:48:42.071Z,78.78
2024-04-13T19:51:08.865Z,78.45
2024-04-13T19:53:36.551Z,78.65
2024-04-13T19:56:03.192Z,77.26
2024-04-13T19:58:29.823Z,76.33
2024-04-13T20:00:56.469Z,76.60
2024-04-13T20:03:25.705Z,75.84
2024-04-13T20:05:58.052Z,74.01
2024-04-13T20:08:24.616Z,72.99
2024-04-13T20:11:04.618Z,71.91
2024-04-13T20:13:31.430Z,70.14
2024-04-13T20:16:16.621Z,69.83
2024-04-13T20:18:43.417Z,68.56
2024-04-13T20:21:13.410Z,68.39
2024-04-13T20:23:40.233Z,68.37
2024-04-13T20:26:06.972Z,67.01
2024-04-13T20:28:33.703Z,66.55
2024-04-13T20:31:00.646Z,66.62
2024-04-13T20:33:27.868Z,66.15
2024-04-13T20:35:54.500Z,67.04
2024-04-13T20:38:21.298Z,66.48
2024-04-13T20:40:47.871Z,67.72
2024-04-13T20:43:14.615Z,67.25
2024-04-13T20:45:41.593Z,68.20
2024-04-13T20:48:08.692Z,67.82
2024-04-13T20:50:37.718Z,68.43
2024-04-13T20:53:05.677Z,67.57
2024-04-13T20:55:32.277Z,69.29
2024-04-13T20:57:58.916Z,69.25
2024-04-13T21:00:26.904Z,69.80
2024-04-13T21:02:53.624Z,69.46
2024-04-13T21:05:20.139Z,68.35
2024-04-13T21:07:47.341Z,69.13
2024-04-13T21:10:14.381Z,69.55
2024-04-13T21:12:41.041Z,69.43
2024-04-13T21:15:08.156Z,69.50
2024-04-13T21:17:35.357Z,69.44
2024-04-13T21:20:02.185Z,69.10
2024-04-13T21:22:29.013Z,69.53
2024-04-13T21:24:58.226Z,69.87
2024-04-13T21:27:26.135Z,68.47
2024-04-13T21:29:52.836Z,68.23
2024-04-13T21:32:20.431Z,68.54
2024-04-13T21:34:47.263Z,67.58
2024-04-13T21:37:13.781Z,67.49
2024-04-13T21:39:40.362Z,66.16
2024-04-13T21:42:07.048Z,66.24
2024-04-13T21:44:33.646Z,66.75
2024-04-13T21:47:00.321Z,64.66
2024-04-13T21:49:26.893Z,65.26
2024-04-13T21:51:53.583Z,65.69
2024-04-13T21:54:20.145Z,65.67
2024-04-13T21:56:46.717Z,65.39
2024-04-13T21:59:13.588Z,65.38
2024-04-13T22:01:40.164Z,66.13
2024-04-13T22:04:07.394Z,65.14
2024-04-13T22:06:34.501Z,64.82
2024-04-13T22:09:01.503Z,64.50
2024-04-13T22:11:28.342Z,66.57
2024-04-13T22:13:55.051Z,66.21
2024-04-13T22:16:22.477Z,66.76
2024-04-13T22:18:49.378Z,65.80
2024-04-13T22:21:15.984Z,65.73
2024-04-13T22:23:42.787Z,66.69
2024-04-13T22:26:09.430Z,66.21
2024-04-13T22:28:36.991Z,67.87
2024-04-13T22:31:03.827Z,67.29
2024-04-13T22:33:30.531Z,66.47
2024-04-13T22:35:57.116Z,66.17
2024-04-13T22:38:23.652Z,67.16
2024-04-13T22:40:50.759Z,67.04
2024-04-13T22:43:18.675Z,66.80
2024-04-13T22:45:45.340Z,67.34
2024-04-13T22:48:11.998Z,67.38
2024-04-13T22:50:38.597Z,67.94
2024-04-13T22:53:05.164Z,68.56
2024-04-13T22:55:31.673Z,69.30
2024-04-13T22:57:59.129Z,70.22
2024-04-13T23:00:25.945Z,70.70
2024-04-13T23:02:52.566Z,70.98
2024-04-13T23:05:19.103Z,71.45
2024-04-13T23:07:45.646Z,72.64
2024-04-13T23:10:12.199Z,72.36
2024-04-13T23:12:39.170Z,73.86
2024-04-13T23:15:06.109Z,74.31
2024-04-13T23:17:33.633Z,75.04
2024-04-13T23:20:00.239Z,76.29
2024-04-13T23:22:26.799Z,77.18
2024-04-13T23:24:53.619Z,78.01
2024-04-13T23:27:20.461Z,79.43
2024-04-13T23:29:47.032Z,80.30
2024-04-13T23:32:13.570Z,80.82
2024-04-13T23:34:40.122Z,82.31
2024-04-13T23:37:06.644Z,82.96
2024-04-13T23:39:33.171Z,83.42
2024-04-13T23:42:00.080Z,84.45
2024-04-13T23:44:31.250Z,85.27
2024-04-13T23:46:58.492Z,85.98
2024-04-13T23:49:25.186Z,86.15
2024-04-13T23:51:51.774Z,86.93
2024-04-13T23:54:18.306Z,87.56
2024-04-13T23:56:46.305Z,88.53
2024-04-13T23:59:13.688Z,88.96
